This is the latest recevied weather packets stored in our database for station/object HK4K-15. If no packets are shown the sender has not sent any weather packets the latest 10 day(s).
| Time | Temp. | Humidity | Pressure | Rain* | Wind** | Luminosity | Snow |
|---|---|---|---|---|---|---|---|
| 1787600593 | 26.11° C | 49% | 1007 hPa | 0 mm | - | - | - |
| 1787599573 | 26.67° C | 46% | 1008 hPa | 0 mm | - | - | - |
| 1787598552 | 26.67° C | 46% | 1008 hPa | 0 mm | - | - | - |
| 1787597532 | 27.22° C | 45% | 1008 hPa | 0 mm | - | - | - |
| 1787596511 | 26.67° C | 46% | 1008 hPa | 0 mm | - | - | - |
| 1787595491 | 27.22° C | 46% | 1009 hPa | 0 mm | - | - | - |
| 1787594470 | 27.22° C | 46% | 1009 hPa | 0 mm | - | - | - |
| 1787593450 | 26.11° C | 44% | 1010 hPa | 0 mm | - | - | - |
| 1787592429 | 26.67° C | 44% | 1011 hPa | 0 mm | - | - | - |
| 1787591409 | 27.22° C | 43% | 1011 hPa | 0 mm | - | - | - |
| 1787590388 | 27.78° C | 43% | 1011 hPa | 0 mm | - | - | - |
| 1787589368 | 26.11° C | 46% | 1011 hPa | 0 mm | - | - | - |
| 1787588347 | 25° C | 53% | 1012 hPa | 0 mm | - | - | - |
| 1787587327 | 25.56° C | 54% | 1012 hPa | 0 mm | - | - | - |
| 1787586306 | 25° C | 57% | 1012 hPa | 0 mm | - | - | - |
| 1787585286 | 24.44° C | 63% | 1014 hPa | 0 mm | - | - | - |
| 1787584265 | 24.44° C | 63% | 1014 hPa | 0 mm | - | - | - |
| 1787583245 | 24.44° C | 63% | 1014 hPa | 0 mm | - | - | - |
| 1787582224 | 22.22° C | 67% | 1014 hPa | 0 mm | - | - | - |
| 1787581204 | 21.67° C | 70% | 1015 hPa | 0 mm | - | - | - |
| 1787580183 | 20.56° C | 74% | 1015 hPa | 0 mm | - | - | - |
| 1787579163 | 21.11° C | 74% | 1015 hPa | 0 mm | - | - | - |
| 1787578142 | 17.22° C | 92% | 1016 hPa | 0 mm | - | - | - |
| 1787577122 | 17.22° C | 94% | 1016 hPa | 0 mm | - | - | - |
| 1787576102 | 16.67° C | 10% | - | 0 mm | - | - | - |
* Rain latest hour (hover to see other rain measurements)
** Current wind speed in m/s (hover to see current wind gust speed)